Time;durP1;ratioP1;P1;durP2;ratioP2;P2;SDS_P1;SDS_P2;PMS_P1;PMS_P2;Temp;Humidity;BMP_temperature;BMP_pressure;BME280_temperature;BME280_humidity;BME280_pressure;Samples;Min_cycle;Max_cycle;Signal;HPM_P1;HPM_P2
2024/01/22 00:01:50;;;;;;;19.67;12.13;;;;;;;3.42;86.32;98795.34;4227578;27;20213;-83
2024/01/22 00:03:53;;;;;;;19.33;12.70;;;;;;;3.41;86.07;98790.25;4232065;27;20257;-83
2024/01/22 00:05:56;;;;;;;23.65;12.40;;;;;;;3.38;85.89;98795.47;4256534;27;20207;-83
2024/01/22 00:07:59;;;;;;;19.13;12.23;;;;;;;3.34;86.10;98781.84;4258224;27;20257;-84
2024/01/22 00:10:03;;;;;;;20.17;12.15;;;;;;;3.32;86.19;98773.31;4225672;27;20230;-83
2024/01/22 00:12:07;;;;;;;17.08;11.63;;;;;;;3.32;86.36;98767.31;4258485;27;20215;-83
2024/01/22 00:14:10;;;;;;;17.40;11.52;;;;;;;3.31;86.68;98766.47;4238988;27;20204;-83
2024/01/22 00:16:15;;;;;;;27.75;17.05;;;;;;;3.30;86.46;98761.38;4255378;27;20210;-83
2024/01/22 00:18:18;;;;;;;28.73;18.70;;;;;;;3.25;86.64;98762.38;4239594;27;21199;-83
2024/01/22 00:20:22;;;;;;;22.75;14.60;;;;;;;3.16;87.29;98755.78;4238352;27;20685;-83
2024/01/22 00:22:25;;;;;;;20.45;14.20;;;;;;;3.12;86.93;98751.59;4230656;27;20226;-83
2024/01/22 00:24:28;;;;;;;18.70;12.13;;;;;;;3.09;86.00;98748.25;4256260;27;20233;-83
2024/01/22 00:26:35;;;;;;;16.25;11.60;;;;;;;3.05;85.96;98741.50;4243256;27;20214;-83
2024/01/22 00:28:39;;;;;;;17.90;11.38;;;;;;;3.04;86.49;98739.84;4244941;27;20637;-83
2024/01/22 00:30:41;;;;;;;18.10;12.13;;;;;;;3.01;86.62;98739.91;4236902;27;20251;-83
2024/01/22 00:32:44;;;;;;;18.88;12.60;;;;;;;2.97;86.52;98739.13;4241381;27;20204;-84
2024/01/22 00:34:48;;;;;;;17.13;11.57;;;;;;;2.97;87.04;98739.13;4259464;27;20290;-83
2024/01/22 00:36:50;;;;;;;15.30;10.30;;;;;;;2.95;86.82;98724.63;4224559;27;20270;-83
2024/01/22 00:38:54;;;;;;;18.92;11.27;;;;;;;2.96;86.93;98718.56;4235996;27;20291;-84
2024/01/22 00:41:01;;;;;;;15.80;10.88;;;;;;;2.94;87.18;98712.63;4231445;27;20206;-83
2024/01/22 00:43:06;;;;;;;17.00;11.25;;;;;;;2.91;87.05;98712.72;4230031;27;20200;-83
2024/01/22 00:45:10;;;;;;;18.00;10.75;;;;;;;2.89;87.71;98714.50;4242059;27;20192;-84
2024/01/22 00:47:13;;;;;;;14.05;10.07;;;;;;;2.86;87.33;98714.59;4236921;27;20212;-83
2024/01/22 00:49:24;;;;;;;15.80;10.32;;;;;;;2.85;87.41;98718.03;4233860;27;20243;-83
2024/01/22 00:51:27;;;;;;;16.02;11.05;;;;;;;2.82;87.49;98707.84;4233910;27;20259;-83
2024/01/22 00:53:30;;;;;;;18.48;10.65;;;;;;;2.80;87.78;98714.75;4237625;27;20249;-83
2024/01/22 00:55:34;;;;;;;17.48;10.05;;;;;;;2.77;87.98;98708.84;4241779;27;20276;-84
2024/01/22 00:57:37;;;;;;;14.77;9.65;;;;;;;2.73;88.20;98696.94;4239343;27;21520;-83
2024/01/22 00:59:42;;;;;;;16.15;10.52;;;;;;;2.71;88.19;98688.44;4239150;27;20207;-83
2024/01/22 01:01:45;;;;;;;15.35;10.15;;;;;;;2.69;87.91;98690.19;4239170;27;20211;-83
2024/01/22 01:03:49;;;;;;;16.55;10.60;;;;;;;2.68;87.65;98679.06;4240114;27;20246;-83
2024/01/22 01:05:52;;;;;;;15.95;9.88;;;;;;;2.64;87.33;98664.56;4235778;27;20200;-83
2024/01/22 01:07:56;;;;;;;13.73;9.18;;;;;;;2.59;87.64;98663.88;4235067;27;20544;-83
2024/01/22 01:10:03;;;;;;;13.82;9.60;;;;;;;2.54;87.75;98658.03;4240123;27;20215;-83
2024/01/22 01:12:07;;;;;;;11.48;7.72;;;;;;;2.56;88.27;98663.97;4219939;28;20211;-83
2024/01/22 01:14:10;;;;;;;11.38;8.98;;;;;;;2.57;88.34;98652.78;4257219;27;20660;-84
2024/01/22 01:16:15;;;;;;;12.50;9.07;;;;;;;2.54;87.80;98647.72;4248730;27;20229;-83
2024/01/22 01:18:18;;;;;;;14.40;8.60;;;;;;;2.55;87.71;98656.28;4223401;27;20743;-83
2024/01/22 01:20:21;;;;;;;14.93;8.90;;;;;;;2.51;87.71;98652.09;4216958;27;20681;-83
2024/01/22 01:22:28;;;;;;;14.32;10.40;;;;;;;2.45;87.92;98660.84;4232087;27;20314;-83
2024/01/22 01:24:31;;;;;;;19.10;9.88;;;;;;;2.44;87.90;98659.16;4234810;27;20621;-83
2024/01/22 01:26:33;;;;;;;14.77;10.30;;;;;;;2.43;87.85;98660.03;4241779;27;20203;-83
2024/01/22 01:28:36;;;;;;;22.35;11.43;;;;;;;2.34;87.92;98655.13;4251200;27;20223;-83
2024/01/22 01:30:39;;;;;;;17.70;10.70;;;;;;;2.28;88.29;98653.63;4236273;27;20206;-83
2024/01/22 01:32:46;;;;;;;19.58;11.52;;;;;;;2.26;88.33;98656.22;4231084;27;20287;-83
2024/01/22 01:34:51;;;;;;;17.10;10.30;;;;;;;2.28;88.16;98658.75;4231735;27;20215;-83
2024/01/22 01:36:54;;;;;;;18.42;10.43;;;;;;;2.27;88.60;98657.94;4236652;27;20208;-83
2024/01/22 01:38:56;;;;;;;17.23;9.52;;;;;;;2.24;88.29;98658.00;4235703;27;20192;-83
2024/01/22 01:41:00;;;;;;;14.55;9.55;;;;;;;2.23;88.80;98655.47;4216914;27;20201;-83
2024/01/22 01:43:03;;;;;;;12.70;8.90;;;;;;;2.22;88.84;98651.22;4239393;27;20588;-83
2024/01/22 01:45:12;;;;;;;12.45;8.75;;;;;;;2.20;88.42;98647.84;4252921;27;20222;-83
2024/01/22 01:47:15;;;;;;;14.02;9.18;;;;;;;2.19;88.57;98646.16;4237764;27;20199;-83
2024/01/22 01:49:20;;;;;;;13.77;8.90;;;;;;;2.17;88.55;98640.22;4253694;27;20719;-83
2024/01/22 01:51:23;;;;;;;15.00;9.02;;;;;;;2.17;88.55;98645.34;4251796;27;25236;-83
2024/01/22 01:53:33;;;;;;;13.38;8.65;;;;;;;2.12;88.72;98640.34;4234957;27;20203;-83
2024/01/22 01:55:37;;;;;;;15.85;8.43;;;;;;;2.11;88.72;98640.38;4220726;27;20196;-83
2024/01/22 01:57:40;;;;;;;15.52;9.93;;;;;;;2.09;88.75;98637.84;4255170;27;20199;-83
2024/01/22 01:59:51;;;;;;;16.67;8.80;;;;;;;2.10;88.79;98648.97;4256265;27;20689;-83
2024/01/22 02:01:54;;;;;;;13.30;8.27;;;;;;;2.09;88.88;98642.13;4234878;27;20211;-83
2024/01/22 02:03:58;;;;;;;12.25;8.30;;;;;;;2.09;88.66;98645.56;4253705;27;20648;-83
2024/01/22 02:06:02;;;;;;;17.52;8.45;;;;;;;2.09;88.60;98647.25;4256295;27;20210;-83
2024/01/22 02:08:06;;;;;;;11.75;7.85;;;;;;;2.09;88.25;98647.25;4220419;28;20296;-83
2024/01/22 02:10:12;;;;;;;13.68;8.60;;;;;;;2.08;88.57;98650.75;4235161;27;20228;-84
2024/01/22 02:12:16;;;;;;;11.90;8.43;;;;;;;2.07;88.86;98636.19;4232389;27;20607;-83
2024/01/22 02:14:19;;;;;;;12.13;8.27;;;;;;;2.07;88.75;98637.00;4224766;28;20201;-83
2024/01/22 02:16:25;;;;;;;13.05;8.70;;;;;;;2.05;88.40;98638.78;4250952;27;20206;-83
2024/01/22 02:18:29;;;;;;;13.70;8.18;;;;;;;2.03;88.63;98624.28;4252680;27;20272;-83
2024/01/22 02:20:32;;;;;;;16.27;9.10;;;;;;;2.02;88.50;98627.75;4237160;27;20766;-83
2024/01/22 02:22:36;;;;;;;14.40;8.75;;;;;;;2.03;88.72;98629.41;4254112;27;20227;-83
2024/01/22 02:24:40;;;;;;;13.10;8.20;;;;;;;2.03;88.58;98626.84;4237105;27;20254;-83
2024/01/22 02:26:44;;;;;;;13.77;8.70;;;;;;;2.03;88.66;98632.00;4218539;27;20200;-83
2024/01/22 02:28:47;;;;;;;13.68;7.93;;;;;;;2.01;89.03;98626.06;4235483;27;20207;-83
2024/01/22 02:30:51;;;;;;;16.95;8.15;;;;;;;2.02;89.07;98628.59;4236560;27;20223;-83
2024/01/22 02:32:55;;;;;;;15.98;8.40;;;;;;;2.01;88.65;98626.06;4235483;27;20240;-83
2024/01/22 02:34:59;;;;;;;12.45;8.57;;;;;;;1.96;88.74;98625.34;4250399;27;20638;-83
2024/01/22 02:37:03;;;;;;;13.88;8.45;;;;;;;1.99;88.99;98633.81;4222956;27;20204;-83
2024/01/22 02:39:05;;;;;;;11.55;8.38;;;;;;;1.98;89.11;98632.13;4238612;27;20718;-83
2024/01/22 02:41:09;;;;;;;14.35;8.50;;;;;;;1.93;89.03;98628.00;4237531;27;20684;-83
2024/01/22 02:43:14;;;;;;;11.48;7.65;;;;;;;1.91;89.16;98630.59;4253424;27;20211;-83
2024/01/22 02:45:17;;;;;;;13.43;7.40;;;;;;;1.90;89.12;98623.75;4231011;27;20203;-83
2024/01/22 02:47:20;;;;;;;11.82;7.97;;;;;;;1.90;88.89;98633.22;4222021;27;20199;-83
2024/01/22 02:49:23;;;;;;;10.77;7.45;;;;;;;1.87;88.74;98623.00;4250971;27;20228;-83
2024/01/22 02:51:26;;;;;;;9.38;6.55;;;;;;;1.86;88.86;98621.31;4219743;27;20748;-83
2024/01/22 02:53:29;;;;;;;10.68;6.90;;;;;;;1.84;89.05;98624.81;4248421;27;20264;-83
2024/01/22 02:55:33;;;;;;;9.98;6.55;;;;;;;1.82;88.82;98624.88;4237713;27;20774;-84
2024/01/22 02:57:37;;;;;;;11.88;6.55;;;;;;;1.82;89.67;98624.88;4219880;28;20750;-83
2024/01/22 02:59:42;;;;;;;13.25;6.88;;;;;;;1.85;89.32;98613.63;4232659;27;20660;-83
2024/01/22 03:01:45;;;;;;;10.70;7.60;;;;;;;1.84;89.02;98607.66;4215142;28;20205;-83
2024/01/22 03:03:47;;;;;;;14.90;8.93;;;;;;;1.82;88.69;98614.59;4233119;27;20243;-83
2024/01/22 03:05:51;;;;;;;13.10;8.20;;;;;;;1.81;88.92;98606.91;4254485;27;20837;-83
2024/01/22 03:07:55;;;;;;;12.73;7.88;;;;;;;1.82;88.27;98604.31;4232411;27;20208;-84
2024/01/22 03:09:58;;;;;;;9.25;6.40;;;;;;;1.87;88.24;98606.75;4217781;28;20222;-83
2024/01/22 03:12:07;;;;;;;11.68;6.60;;;;;;;2.02;88.10;98602.88;4233775;27;20239;-83
2024/01/22 03:14:12;;;;;;;9.02;6.20;;;;;;;2.16;88.13;98610.22;4239909;27;20222;-83
2024/01/22 03:16:15;;;;;;;6.90;4.57;;;;;;;2.27;87.75;98595.34;4244153;27;20673;-83
2024/01/22 03:18:17;;;;;;;7.13;4.90;;;;;;;2.40;86.97;98608.66;4220991;27;20225;-83
2024/01/22 03:20:21;;;;;;;7.22;3.85;;;;;;;2.49;84.81;98607.56;4257359;27;20214;-83
2024/01/22 03:22:24;;;;;;;8.20;4.95;;;;;;;2.60;85.14;98603.81;4256816;27;20223;-83
2024/01/22 03:24:29;;;;;;;6.70;4.63;;;;;;;2.67;84.83;98599.31;4222320;27;20705;-83
2024/01/22 03:26:35;;;;;;;6.03;4.28;;;;;;;2.74;84.24;98596.50;4232030;27;20670;-83
2024/01/22 03:28:37;;;;;;;11.48;5.80;;;;;;;2.80;84.23;98598.91;4220697;27;20216;-83
2024/01/22 03:30:41;;;;;;;6.60;4.50;;;;;;;2.83;84.14;98597.06;4231791;27;20682;-83
2024/01/22 03:32:44;;;;;;;5.20;3.38;;;;;;;2.89;83.01;98591.75;4237209;27;20282;-84
2024/01/22 03:34:47;;;;;;;8.52;4.72;;;;;;;2.90;83.09;98595.16;4238603;27;20210;-83
2024/01/22 03:36:50;;;;;;;7.45;4.95;;;;;;;2.87;83.55;98579.78;4238939;27;20636;-83
2024/01/22 03:38:52;;;;;;;11.77;6.65;;;;;;;2.84;83.77;98575.59;4228504;27;20298;-83
2024/01/22 03:40:56;;;;;;;7.78;5.60;;;;;;;2.81;84.18;98567.09;4233744;27;20195;-83
2024/01/22 03:43:00;;;;;;;7.97;5.15;;;;;;;2.77;83.66;98570.66;4246276;27;20202;-83
2024/01/22 03:45:03;;;;;;;7.97;3.10;;;;;;;2.80;83.58;98562.84;4222569;28;20216;-83
2024/01/22 03:47:09;;;;;;;4.57;3.05;;;;;;;2.85;82.40;98564.38;4215771;28;20204;-83
2024/01/22 03:49:13;;;;;;;5.15;2.80;;;;;;;3.04;81.25;98572.41;4236513;27;20800;-83
2024/01/22 03:51:16;;;;;;;4.32;3.30;;;;;;;3.16;81.72;98572.00;4221241;28;20248;-83
2024/01/22 03:53:20;;;;;;;4.53;3.00;;;;;;;3.19;81.13;98572.75;4222581;28;20221;-83
2024/01/22 03:55:24;;;;;;;5.57;3.38;;;;;;;3.30;81.43;98586.97;4221641;28;20204;-83
2024/01/22 03:57:27;;;;;;;3.30;2.45;;;;;;;3.35;80.14;98581.66;4249628;27;20202;-83
2024/01/22 03:59:30;;;;;;;8.60;5.30;;;;;;;3.34;81.19;98575.69;4225491;28;20271;-84
2024/01/22 04:01:36;;;;;;;12.60;7.90;;;;;;;3.20;81.47;98579.56;4242039;27;20306;-83
2024/01/22 04:03:39;;;;;;;9.70;6.75;;;;;;;3.13;82.55;98583.25;4233889;27;20707;-83
2024/01/22 04:05:43;;;;;;;9.70;6.32;;;;;;;3.07;82.51;98570.56;4232989;27;20222;-83
2024/01/22 04:07:46;;;;;;;8.57;5.80;;;;;;;3.04;83.28;98567.25;4224040;28;20208;-83
2024/01/22 04:09:52;;;;;;;10.10;6.82;;;;;;;3.02;83.60;98566.44;4251549;27;20226;-83
2024/01/22 04:11:58;;;;;;;8.75;5.90;;;;;;;3.01;83.33;98557.88;4238535;27;20699;-83
2024/01/22 04:14:01;;;;;;;8.32;6.10;;;;;;;3.01;84.00;98552.72;4235043;27;20707;-84
2024/01/22 04:16:07;;;;;;;6.22;4.10;;;;;;;3.06;83.33;98547.44;4220261;28;20197;-83
2024/01/22 04:18:11;;;;;;;5.10;3.35;;;;;;;3.14;82.73;98548.03;4252596;27;20234;-83
2024/01/22 04:20:19;;;;;;;6.93;4.43;;;;;;;3.31;82.96;98544.03;4235162;27;20199;-83
2024/01/22 04:22:22;;;;;;;5.22;3.53;;;;;;;3.39;82.06;98549.75;4251129;27;20322;-83
2024/01/22 04:24:25;;;;;;;4.55;2.90;;;;;;;3.49;81.79;98559.72;4215378;28;20200;-83
2024/01/22 04:26:28;;;;;;;9.05;5.22;;;;;;;3.64;82.20;98551.47;4233187;27;20658;-84
2024/01/22 04:28:32;;;;;;;9.15;5.90;;;;;;;3.61;83.00;98546.44;4241526;27;20641;-84
2024/01/22 04:30:35;;;;;;;11.52;6.93;;;;;;;3.52;82.41;98538.13;4235091;27;20233;-84
2024/01/22 04:32:43;;;;;;;9.10;5.78;;;;;;;3.43;82.65;98534.16;4238181;27;20204;-84
2024/01/22 04:34:46;;;;;;;8.32;5.90;;;;;;;3.46;83.31;98531.47;4244822;27;20197;-84
2024/01/22 04:36:51;;;;;;;7.10;4.60;;;;;;;3.53;82.35;98530.34;4218648;27;20938;-84
2024/01/22 04:38:54;;;;;;;6.97;3.85;;;;;;;3.64;81.64;98528.28;4238483;27;20207;-84
2024/01/22 04:40:57;;;;;;;5.05;2.50;;;;;;;3.76;80.96;98530.44;4250838;27;20199;-84
2024/01/22 04:43:01;;;;;;;5.43;2.95;;;;;;;3.93;80.89;98534.09;4237164;27;20653;-84
2024/01/22 04:45:06;;;;;;;5.05;3.10;;;;;;;4.04;80.43;98531.97;4260056;27;20203;-84
2024/01/22 04:47:10;;;;;;;4.72;3.22;;;;;;;4.13;79.36;98533.38;4240881;27;20719;-84
2024/01/22 04:49:12;;;;;;;10.45;5.47;;;;;;;4.18;79.88;98527.19;4242523;27;20208;-83
2024/01/22 04:51:15;;;;;;;6.13;3.47;;;;;;;4.16;79.12;98522.97;4240035;27;20234;-83
2024/01/22 04:53:20;;;;;;;6.50;4.32;;;;;;;4.20;79.12;98522.78;4225912;27;20316;-84
2024/01/22 04:55:23;;;;;;;4.22;3.05;;;;;;;4.25;78.98;98514.00;4218799;28;20207;-84
2024/01/22 04:57:34;;;;;;;5.80;3.83;;;;;;;4.33;78.34;98509.38;4224713;27;20200;-84
2024/01/22 04:59:37;;;;;;;4.07;3.00;;;;;;;4.41;78.22;98509.94;4238581;27;20295;-84
2024/01/22 05:01:42;;;;;;;3.45;2.65;;;;;;;4.47;78.14;98509.69;4240260;27;20896;-84
2024/01/22 05:03:45;;;;;;;6.20;3.40;;;;;;;4.57;77.29;98508.47;4257308;27;20251;-84
2024/01/22 05:05:49;;;;;;;6.25;3.38;;;;;;;4.68;76.82;98505.47;4226135;27;20284;-84
2024/01/22 05:07:53;;;;;;;3.15;2.33;;;;;;;4.72;76.66;98503.53;4259262;27;20199;-84
2024/01/22 05:10:02;;;;;;;4.57;2.63;;;;;;;4.81;76.37;98513.53;4213143;28;20262;-84
2024/01/22 05:12:06;;;;;;;4.15;2.45;;;;;;;4.90;76.46;98514.88;4235962;27;20227;-84
2024/01/22 05:14:09;;;;;;;3.78;2.30;;;;;;;4.96;76.81;98509.47;4254144;27;20234;-84
2024/01/22 05:16:12;;;;;;;6.35;2.95;;;;;;;5.00;76.57;98511.06;4264973;27;20740;-83
2024/01/22 05:18:16;;;;;;;4.28;2.80;;;;;;;5.02;75.48;98507.53;4253666;27;20215;-84
2024/01/22 05:20:21;;;;;;;4.80;2.50;;;;;;;5.09;75.65;98505.53;4257675;27;20207;-84
2024/01/22 05:22:25;;;;;;;5.05;3.10;;;;;;;5.15;75.60;98504.34;4233457;27;20303;-84
2024/01/22 05:24:27;;;;;;;5.32;2.60;;;;;;;5.20;75.14;98499.00;4253759;27;20235;-84
2024/01/22 05:26:34;;;;;;;2.83;2.33;;;;;;;5.25;75.50;98507.44;4243809;27;20212;-84
2024/01/22 05:28:37;;;;;;;3.50;2.50;;;;;;;5.30;76.32;98492.56;4256667;27;20210;-84
2024/01/22 05:30:40;;;;;;;5.15;2.60;;;;;;;5.35;74.72;98494.06;4232241;27;20200;-84
2024/01/22 05:32:43;;;;;;;4.57;2.42;;;;;;;5.42;75.24;98495.47;4258509;27;20231;-84
2024/01/22 05:34:47;;;;;;;5.20;2.90;;;;;;;5.48;75.45;98495.22;4229293;27;20205;-84
2024/01/22 05:36:50;;;;;;;4.55;2.45;;;;;;;5.53;75.21;98492.44;4240771;27;20212;-84
2024/01/22 05:38:54;;;;;;;4.80;2.50;;;;;;;5.58;75.39;98485.31;4255259;27;20220;-84
2024/01/22 05:40:56;;;;;;;3.63;2.60;;;;;;;5.63;75.36;98485.06;4234518;27;20233;-84
2024/01/22 05:43:01;;;;;;;3.47;2.00;;;;;;;5.66;75.34;98484.09;4236310;27;20200;-84
2024/01/22 05:45:06;;;;;;;3.22;2.22;;;;;;;5.69;75.07;98478.78;4235495;27;20296;-84
2024/01/22 05:47:09;;;;;;;4.25;2.35;;;;;;;5.74;75.30;98482.03;4223336;27;20809;-84
2024/01/22 05:49:12;;;;;;;2.92;1.80;;;;;;;5.83;74.57;98481.66;4253758;27;20209;-84
2024/01/22 05:51:16;;;;;;;4.05;2.28;;;;;;;5.88;74.70;98490.03;4237292;27;20935;-84
2024/01/22 05:53:19;;;;;;;3.70;2.45;;;;;;;5.92;74.75;98482.06;4254435;27;20666;-84
2024/01/22 05:55:28;;;;;;;4.70;2.40;;;;;;;5.92;74.65;98470.91;4239621;27;20196;-84
2024/01/22 05:57:33;;;;;;;3.53;1.98;;;;;;;5.94;75.00;98458.72;4237576;27;20218;-83
2024/01/22 05:59:39;;;;;;;3.50;2.22;;;;;;;5.97;74.87;98453.41;4234119;27;20212;-84
2024/01/22 06:01:42;;;;;;;5.25;1.90;;;;;;;6.01;75.24;98447.19;4230148;27;20936;-84
2024/01/22 06:03:45;;;;;;;2.88;2.05;;;;;;;6.05;75.15;98446.16;4239214;27;20516;-84
2024/01/22 06:05:48;;;;;;;4.50;2.35;;;;;;;6.10;75.44;98453.66;4252386;27;20247;-83
2024/01/22 06:07:53;;;;;;;4.25;2.03;;;;;;;6.16;75.46;98457.69;4256583;27;20205;-84
2024/01/22 06:09:56;;;;;;;3.05;2.10;;;;;;;6.21;75.36;98448.81;4250494;27;20203;-84
2024/01/22 06:12:10;;;;;;;3.83;2.05;;;;;;;6.29;74.93;98451.06;4254663;27;20260;-84
2024/01/22 06:14:13;;;;;;;3.03;1.70;;;;;;;6.35;74.63;98437.84;4241504;27;20213;-84
2024/01/22 06:16:18;;;;;;;2.92;2.00;;;;;;;6.41;74.69;98446.16;4236869;27;20239;-84
2024/01/22 06:18:21;;;;;;;2.83;1.73;;;;;;;6.47;74.66;98443.28;4237384;27;20264;-84
2024/01/22 06:20:32;;;;;;;2.50;1.83;;;;;;;6.52;74.63;98454.25;4251756;27;20714;-84
2024/01/22 06:22:38;;;;;;;3.15;1.70;;;;;;;6.54;74.51;98444.69;4256818;27;20714;-83
2024/01/22 06:24:41;;;;;;;3.60;2.30;;;;;;;6.61;74.40;98449.50;4233332;27;20234;-84
2024/01/22 06:26:45;;;;;;;4.97;2.30;;;;;;;6.66;74.09;98444.09;4235808;27;20607;-84
2024/01/22 06:28:49;;;;;;;3.58;2.30;;;;;;;6.68;74.51;98439.69;4257262;27;20221;-84
2024/01/22 06:30:52;;;;;;;9.65;2.58;;;;;;;6.72;74.00;98436.03;4238406;27;20204;-84
2024/01/22 06:33:00;;;;;;;3.60;2.45;;;;;;;6.77;73.84;98434.06;4228416;27;20225;-84
2024/01/22 06:35:04;;;;;;;3.17;2.10;;;;;;;6.80;74.52;98432.16;4239436;27;20819;-84
2024/01/22 06:37:09;;;;;;;4.35;2.75;;;;;;;6.82;73.68;98439.88;4243116;27;20255;-84
2024/01/22 06:39:12;;;;;;;2.97;1.83;;;;;;;6.83;74.46;98429.44;4236215;27;20223;-84
2024/01/22 06:41:18;;;;;;;3.75;2.20;;;;;;;6.84;74.75;98438.88;4233904;27;20207;-84
2024/01/22 06:43:22;;;;;;;4.32;2.30;;;;;;;6.84;73.99;98425.94;4225917;27;20219;-84
2024/01/22 06:45:27;;;;;;;2.83;2.08;;;;;;;6.89;74.14;98417.94;4227335;27;20288;-83
2024/01/22 06:47:33;;;;;;;4.57;2.30;;;;;;;6.87;73.20;98409.38;4218376;27;20688;-84
2024/01/22 06:49:39;;;;;;;4.18;3.03;;;;;;;6.89;73.87;98417.94;4239537;27;20225;-84
2024/01/22 06:51:42;;;;;;;5.18;2.95;;;;;;;6.91;73.97;98410.91;4238312;27;20206;-84
2024/01/22 06:53:49;;;;;;;5.57;3.17;;;;;;;6.89;74.52;98408.41;4255752;27;20197;-84
2024/01/22 06:55:53;;;;;;;5.40;3.20;;;;;;;6.87;73.99;98406.78;4239209;27;20297;-84
2024/01/22 06:57:56;;;;;;;5.72;3.60;;;;;;;6.82;74.60;98401.81;4260594;27;20203;-84
2024/01/22 07:00:06;;;;;;;6.38;3.55;;;;;;;6.83;73.75;98402.69;4229577;27;20211;-84
2024/01/22 07:02:10;;;;;;;6.78;3.30;;;;;;;6.84;74.29;98405.19;4225185;27;20296;-84
2024/01/22 07:04:14;;;;;;;5.20;3.72;;;;;;;6.85;74.39;98409.44;4256363;27;20213;-84
2024/01/22 07:06:19;;;;;;;4.85;3.50;;;;;;;6.89;74.69;98408.41;4239679;27;20228;-84
2024/01/22 07:08:27;;;;;;;4.93;3.15;;;;;;;6.93;74.44;98409.94;4237701;27;20813;-84
2024/01/22 07:10:31;;;;;;;3.65;2.80;;;;;;;6.97;73.69;98418.38;4242790;27;20707;-84
2024/01/22 07:12:35;;;;;;;2.75;1.90;;;;;;;7.00;72.32;98420.84;4237781;27;20215;-84
2024/01/22 07:14:39;;;;;;;2.92;2.10;;;;;;;7.14;72.17;98419.22;4254427;27;20215;-84
2024/01/22 07:16:43;;;;;;;3.75;2.30;;;;;;;7.22;72.75;98410.16;4232802;27;20214;-84
2024/01/22 07:18:45;;;;;;;2.67;1.70;;;;;;;7.24;73.58;98421.28;4237707;27;20762;-84
2024/01/22 07:20:48;;;;;;;2.10;1.42;;;;;;;7.32;71.66;98420.91;4234601;27;20210;-84
2024/01/22 07:22:53;;;;;;;3.92;1.80;;;;;;;7.38;72.70;98424.06;4238247;27;20217;-84
2024/01/22 07:24:57;;;;;;;4.18;1.63;;;;;;;7.49;71.19;98425.16;4239132;27;20592;-84
2024/01/22 07:27:01;;;;;;;2.60;1.63;;;;;;;7.58;70.50;98421.28;4235923;27;20230;-84
2024/01/22 07:29:05;;;;;;;3.90;2.05;;;;;;;7.64;69.72;98418.38;4221181;28;20196;-84
2024/01/22 07:31:07;;;;;;;4.55;1.85;;;;;;;7.70;69.57;98421.47;4251460;27;20569;-84
2024/01/22 07:33:12;;;;;;;3.33;1.90;;;;;;;7.75;68.57;98421.25;4230765;27;20215;-82
2024/01/22 07:35:16;;;;;;;3.55;1.85;;;;;;;7.78;69.80;98421.09;4223867;28;20210;-84
2024/01/22 07:37:20;;;;;;;3.53;1.90;;;;;;;7.84;69.34;98407.78;4234571;27;20325;-84
2024/01/22 07:39:27;;;;;;;3.22;1.83;;;;;;;7.85;69.57;98404.25;4217050;27;20225;-83
2024/01/22 07:41:31;;;;;;;4.03;1.83;;;;;;;7.87;68.75;98399.84;4232357;27;20370;-85
2024/01/22 07:43:34;;;;;;;3.42;1.80;;;;;;;7.92;68.58;98392.63;4215893;28;20227;-81
2024/01/22 07:45:39;;;;;;;5.78;2.78;;;;;;;7.97;68.38;98392.31;4221077;28;20793;-83
2024/01/22 07:47:43;;;;;;;3.17;1.50;;;;;;;8.05;68.32;98386.72;4249166;27;20232;-82
2024/01/22 07:49:47;;;;;;;3.17;1.58;;;;;;;8.10;66.45;98374.31;4243233;27;20237;-83
2024/01/22 07:51:50;;;;;;;4.47;1.75;;;;;;;8.21;66.41;98374.59;4233615;27;20211;-82
2024/01/22 07:53:54;;;;;;;2.35;1.60;;;;;;;8.27;66.93;98369.91;4242160;27;20312;-84
2024/01/22 07:55:59;;;;;;;2.80;1.70;;;;;;;8.33;67.05;98366.97;4255178;27;20210;-83
2024/01/22 07:58:02;;;;;;;3.67;1.45;;;;;;;8.41;66.76;98367.38;4239826;27;20203;-83
2024/01/22 08:00:11;;;;;;;2.40;1.40;;;;;;;8.47;66.27;98364.44;4225445;28;20661;-85
2024/01/22 08:02:14;;;;;;;3.00;1.50;;;;;;;8.53;66.55;98359.75;4255611;27;20254;-84
2024/01/22 08:04:17;;;;;;;2.80;1.35;;;;;;;8.63;67.22;98355.72;4227409;27;20740;-84
2024/01/22 08:06:21;;;;;;;2.33;1.13;;;;;;;8.68;65.75;98350.25;4247482;27;20218;-83
2024/01/22 08:08:24;;;;;;;2.45;1.30;;;;;;;8.75;66.05;98341.16;4241140;27;20665;-84
2024/01/22 08:10:28;;;;;;;1.98;1.30;;;;;;;8.81;67.08;98346.00;4225525;27;20201;-84
2024/01/22 08:12:33;;;;;;;4.38;1.40;;;;;;;8.83;66.03;98344.19;4254905;27;20194;-84
2024/01/22 08:14:36;;;;;;;3.25;1.50;;;;;;;8.88;66.48;98349.94;4242388;27;20202;-83
2024/01/22 08:16:40;;;;;;;3.00;1.40;;;;;;;8.92;66.44;98346.25;4217768;27;20549;-82
2024/01/22 08:18:44;;;;;;;4.20;2.38;;;;;;;8.97;66.71;98347.66;4242271;27;20302;-81
2024/01/22 08:20:51;;;;;;;4.20;1.77;;;;;;;9.01;66.89;98352.59;4237304;27;20199;-81
2024/01/22 08:22:55;;;;;;;2.70;1.65;;;;;;;9.05;67.93;98348.88;4225949;27;20625;-82
2024/01/22 08:25:03;;;;;;;3.20;1.40;;;;;;;9.09;67.63;98352.13;4244065;27;20208;-82
2024/01/22 08:27:06;;;;;;;2.58;1.20;;;;;;;9.09;68.02;98347.75;4255446;27;20677;-84
2024/01/22 08:29:11;;;;;;;2.20;1.20;;;;;;;9.08;68.18;98347.84;4240353;27;20748;-83
2024/01/22 08:31:14;;;;;;;2.13;1.00;;;;;;;9.10;68.30;98343.41;4247165;27;20210;-82
2024/01/22 08:33:18;;;;;;;3.10;1.30;;;;;;;9.17;67.91;98348.19;4255649;27;20797;-82
2024/01/22 08:35:23;;;;;;;2.65;1.27;;;;;;;9.24;67.05;98346.88;4240218;27;20207;-81
2024/01/22 08:37:26;;;;;;;2.10;1.00;;;;;;;9.27;68.18;98348.47;4256903;27;20330;-82
2024/01/22 08:39:34;;;;;;;2.47;1.23;;;;;;;9.31;69.24;98342.16;4234836;27;20238;-82
2024/01/22 08:41:37;;;;;;;1.88;1.27;;;;;;;9.33;68.84;98343.72;4250577;27;20636;-83
2024/01/22 08:43:41;;;;;;;4.43;1.35;;;;;;;9.37;69.33;98341.75;4237504;27;20206;-85
2024/01/22 08:45:46;;;;;;;2.67;1.20;;;;;;;9.39;69.48;98343.38;4255982;27;20202;-85
2024/01/22 08:47:50;;;;;;;1.52;0.88;;;;;;;9.41;70.33;98342.34;4224869;27;20696;-85
2024/01/22 08:49:55;;;;;;;1.67;1.07;;;;;;;9.45;70.12;98338.63;4257317;27;20262;-85
2024/01/22 08:52:03;;;;;;;3.22;1.35;;;;;;;9.47;71.04;98322.91;4236115;27;21000;-85
2024/01/22 08:54:11;;;;;;;3.33;1.27;;;;;;;9.50;71.50;98323.59;4238086;27;20214;-85
2024/01/22 08:56:18;;;;;;;1.80;1.10;;;;;;;9.52;71.33;98326.09;4241635;27;20191;-85
2024/01/22 08:58:22;;;;;;;1.90;1.10;;;;;;;9.58;71.64;98323.13;4252368;27;20729;-85
2024/01/22 09:00:26;;;;;;;3.22;1.40;;;;;;;9.60;71.49;98309.06;4240580;27;20604;-84
2024/01/22 09:02:31;;;;;;;2.05;1.10;;;;;;;9.63;72.18;98310.66;4257248;27;21061;-83
2024/01/22 09:04:34;;;;;;;2.43;1.10;;;;;;;9.64;72.69;98301.91;4254502;27;20207;-83
2024/01/22 09:06:38;;;;;;;2.37;1.40;;;;;;;9.63;72.08;98305.44;4236447;27;21350;-83
2024/01/22 09:08:43;;;;;;;1.97;1.10;;;;;;;9.65;72.04;98303.56;4224363;27;20667;-83
2024/01/22 09:10:47;;;;;;;2.72;1.27;;;;;;;9.64;72.37;98302.75;4256862;27;20616;-83
2024/01/22 09:12:50;;;;;;;5.00;1.23;;;;;;;9.65;72.47;98303.56;4238248;27;20350;-83
2024/01/22 09:14:53;;;;;;;2.13;1.00;;;;;;;9.70;72.49;98302.38;4222125;27;20653;-83
2024/01/22 09:16:57;;;;;;;2.50;1.60;;;;;;;9.73;72.98;98307.38;4237206;27;20214;-83
2024/01/22 09:19:07;;;;;;;3.00;1.30;;;;;;;9.74;73.09;98300.41;4233499;27;20707;-83
2024/01/22 09:21:10;;;;;;;2.43;1.40;;;;;;;9.79;72.95;98300.94;4238670;27;20656;-83
2024/01/22 09:23:13;;;;;;;2.87;1.20;;;;;;;9.79;73.41;98306.16;4230839;27;20660;-83
2024/01/22 09:25:19;;;;;;;1.60;0.93;;;;;;;9.79;73.50;98296.59;4242079;27;20631;-83
2024/01/22 09:27:25;;;;;;;2.13;1.20;;;;;;;9.84;73.92;98290.16;4236917;27;20674;-83
2024/01/22 09:29:28;;;;;;;1.70;1.10;;;;;;;9.87;73.84;98294.34;4257805;27;20620;-83
2024/01/22 09:31:32;;;;;;;2.37;1.30;;;;;;;9.92;74.55;98298.34;4234206;27;20203;-83
2024/01/22 09:33:36;;;;;;;4.72;2.17;;;;;;;9.98;74.75;98298.00;4244609;27;20650;-83
2024/01/22 09:35:41;;;;;;;4.20;2.13;;;;;;;10.04;75.48;98286.34;4240303;27;20229;-83
2024/01/22 09:37:44;;;;;;;1.60;0.93;;;;;;;10.07;75.76;98283.53;4234083;27;20664;-83
2024/01/22 09:39:49;;;;;;;2.30;1.20;;;;;;;10.14;76.42;98290.03;4257399;27;20644;-83
2024/01/22 09:41:52;;;;;;;2.00;1.00;;;;;;;10.17;75.98;98285.47;4238803;27;21223;-83
2024/01/22 09:43:58;;;;;;;2.33;1.30;;;;;;;10.17;76.74;98282.03;4240576;27;20625;-83
2024/01/22 09:46:01;;;;;;;2.03;1.17;;;;;;;10.20;76.71;98276.63;4238779;27;20203;-82
2024/01/22 09:48:05;;;;;;;1.93;1.00;;;;;;;10.19;77.34;98278.38;4243959;27;20646;-83